METAR Data
IDs: Format: Raw Decoded Include TAF

Data at: 1417 UTC 10 Aug 2022

KMER 101345Z 31007KT 10SM CLR 17/16 A3003
KMER 101315Z AUTO 33007KT 10SM CLR 17/16 A3003 RMK AO1
KMER 101255Z AUTO 32007KT 10SM CLR 16/16 A3002 RMK AO1
KMER 101235Z AUTO 32007KT 10SM CLR 16/15 A3001 RMK AO1
KMER 101215Z AUTO 33007KT 10SM CLR 16/15 A3001 RMK AO1
KMER 101155Z AUTO 34006KT 10SM CLR 16/14 A3001 RMK AO1
KMER 101135Z AUTO 33006KT 10SM CLR 16/14 A3000 RMK AO1
KMER 101115Z AUTO 33006KT 10SM CLR 17/14 A3000 RMK AO1
KMER 101015Z AUTO 33008KT 10SM CLR 18/12 A2999 RMK AO1
KMER 100955Z AUTO 34008KT 10SM CLR 18/12 A2999 RMK AO1
KMER 100935Z AUTO 34007KT 10SM CLR 18/12 A2999 RMK AO1
KMER 100915Z AUTO 34009KT 10SM CLR 18/12 A2998 RMK AO1
KMER 100855Z AUTO 34009KT 10SM CLR 18/12 A2998 RMK AO1
KMER 100835Z AUTO 34008KT 10SM CLR 19/12 A2998 RMK AO1
KMER 100815Z AUTO 34008KT 10SM CLR 19/12 A2998 RMK AO1
KMER 100755Z AUTO 34008KT 10SM CLR 19/12 A2998 RMK AO1
KMER 100715Z AUTO 34010G15KT 10SM CLR 19/12 A2998 RMK AO1
KMER 100655Z AUTO 33010KT 10SM CLR 20/12 A2998 RMK AO1
KMER 100635Z AUTO 34010KT 10SM CLR 20/12 A2997 RMK AO1
KMER 100615Z AUTO 34011KT 10SM CLR 21/12 A2997 RMK AO1
KMER 100555Z AUTO 34010KT 10SM CLR 21/12 A2996 RMK AO1
KMER 100535Z AUTO 34012KT 10SM CLR 22/12 A2996 RMK AO1
KMER 100455Z AUTO 34008KT 10SM CLR 22/12 A2995 RMK AO1
KMER 100435Z AUTO 34010KT 10SM CLR 23/12 A2995 RMK AO1
KMER 100345Z 31016KT 10SM CLR 27/12 A2991
KMER 100245Z 31009KT 10SM CLR 29/13 A2990
KMER 100145Z 31012KT 10SM CLR 32/12 A2988
KMER 100045Z 33008KT 10SM CLR 34/11 A2988
KMER 092345Z 31009KT 10SM CLR 35/10 A2988
KMER 092245Z 33012KT 10SM CLR 35/09 A2989
KMER 092145Z 34006KT 10SM CLR 34/11 A2990
KMER 091945Z 31010KT 10SM CLR 32/12 A2994
KMER 091845Z 27007KT 10SM CLR 29/11 A2995
KMER 091745Z 32010KT 10SM CLR 28/11 A2995
KMER 091645Z 30008KT 10SM CLR 26/12 A2995
KMER 091545Z 29010KT 10SM CLR 24/12 A2995
KMER 091445Z 32007KT 10SM CLR 22/12 A2994
KMER 091435Z AUTO 33010KT 10SM CLR 23/12 A2994 RMK AO1
KMER 091415Z AUTO 33008KT 10SM CLR 22/12 A2994 RMK AO1
KMER 091355Z AUTO 33010KT 10SM CLR 21/13 A2994 RMK AO1
KMER 091345Z 31007KT 10SM CLR 19/13 A2993
KMER 091335Z AUTO 33008KT 10SM CLR 19/13 A2993 RMK AO1
KMER 091315Z AUTO 33010KT 10SM CLR 19/13 A2992 RMK AO1
KMER 091255Z AUTO 33008KT 10SM CLR 18/13 A2992 RMK AO1
KMER 091235Z AUTO 33007KT 10SM CLR 18/13 A2992 RMK AO1
KMER 091215Z AUTO 32007KT 10SM CLR 18/13 A2992 RMK AO1
KMER 091155Z AUTO 32006KT 10SM CLR 18/13 A2991 RMK AO1
KMER 091135Z AUTO 32006KT 10SM CLR 18/12 A2991 RMK AO1
KMER 091115Z AUTO 31006KT 10SM CLR 18/12 A2991 RMK AO1
KMER 091055Z AUTO 32006KT 10SM CLR 19/12 A2990 RMK AO1
KMER 091035Z AUTO 32006KT 10SM CLR 19/12 A2990 RMK AO1
KMER 091015Z AUTO 32006KT 10SM CLR 19/11 A2990 RMK AO1
KMER 090955Z AUTO 32007KT 10SM CLR 19/11 A2989 RMK AO1
KMER 090935Z AUTO 33006KT 10SM CLR 19/11 A2989 RMK AO1
KMER 090915Z AUTO 34006KT 10SM CLR 19/12 A2989 RMK AO1
KMER 090855Z AUTO 34005KT 10SM CLR 19/12 A2989 RMK AO1
KMER 090835Z AUTO 34006KT 10SM CLR 19/12 A2990 RMK AO1
KMER 090815Z AUTO 34006KT 10SM CLR 20/12 A2990 RMK AO1
KMER 090755Z AUTO 35005KT 10SM CLR 21/13 A2990 RMK AO1
KMER 090735Z AUTO 34005KT 10SM CLR 21/12 A2991 RMK AO1
KMER 090715Z AUTO 33007KT 10SM CLR 21/12 A2991 RMK AO1
KMER 090635Z AUTO 34006KT 10SM CLR 22/12 A2991 RMK AO1
KMER 090615Z AUTO 34007KT 10SM CLR 22/12 A2990 RMK AO1
KMER 090555Z AUTO 33008KT 10SM CLR 22/12 A2990 RMK AO1
KMER 090535Z AUTO 34008KT 10SM CLR 23/12 A2990 RMK AO1
KMER 090515Z AUTO 34007KT 10SM CLR 23/11 A2990 RMK AO1
KMER 090455Z AUTO 34008KT 10SM CLR 24/10 A2990 RMK AO1
KMER 090435Z AUTO 34008KT 10SM CLR 24/09 A2990 RMK AO1
KMER 090345Z 32008KT 10SM CLR 27/12 A2988
KMER 090245Z 33013KT 10SM CLR 29/12 A2987